This is the latest recevied weather packets stored in our database for station/object K7LDN-13. If no packets are shown the sender has not sent any weather packets the latest 10 day(s).
| Time | Temp. | Humidity | Pressure | Rain* | Wind** | Luminosity | Snow |
|---|---|---|---|---|---|---|---|
| 1777231076 | 8.89° C | 86% | 1004.6 hPa | 0 mm | - | 368 W/m² | - |
| 1777230773 | 8.89° C | 86% | 1004.6 hPa | 0 mm | - | 391 W/m² | - |
| 1777230468 | 8.89° C | 86% | 1004.6 hPa | 0 mm | - | 390 W/m² | - |
| 1777230165 | 8.33° C | 87% | 1004.7 hPa | 0 mm | - | 296 W/m² | - |
| 1777229862 | 8.33° C | 88% | 1004.9 hPa | 0 mm | - | 269 W/m² | - |
| 1777229558 | 8.33° C | 88% | 1004.8 hPa | 0 mm | - | 275 W/m² | - |
| 1777229255 | 8.33° C | 88% | 1004.7 hPa | 0 mm | - | 333 W/m² | - |
| 1777228953 | 8.89° C | 89% | 1004.9 hPa | 0.51 mm | - | 327 W/m² | - |
| 1777228648 | 8.33° C | 89% | 1005.1 hPa | 1.27 mm | - | 331 W/m² | - |
| 1777228344 | 8.33° C | 89% | 1005.1 hPa | 1.78 mm | - | 300 W/m² | - |
| 1777228041 | 7.78° C | 88% | 1005.2 hPa | 2.29 mm | - | 261 W/m² | - |
| 1777227740 | 8.33° C | 88% | 1005.2 hPa | 2.29 mm | - | 153 W/m² | - |
| 1777227436 | 8.33° C | 88% | 1005.1 hPa | 0.51 mm | - | 132 W/m² | - |
| 1777227132 | 8.89° C | 88% | 1004.9 hPa | 0 mm | - | 268 W/m² | - |
| 1777226829 | 8.33° C | 88% | 1004.8 hPa | 0.51 mm | - | 415 W/m² | - |
| 1777226528 | 8.33° C | 88% | 1004.8 hPa | 1.27 mm | - | 430 W/m² | - |
| 1777226224 | 8.33° C | 87% | 1004.8 hPa | 1.27 mm | - | 371 W/m² | - |
| 1777225920 | 8.33° C | 86% | 1004.7 hPa | 0.51 mm | - | 364 W/m² | - |
| 1777225616 | 8.33° C | 87% | 1004.9 hPa | 0.51 mm | - | 375 W/m² | - |
| 1777225313 | 8.33° C | 87% | 1005.1 hPa | 0.51 mm | - | 344 W/m² | - |
| 1777225010 | 8.33° C | 86% | 1004.9 hPa | 0 mm | - | 339 W/m² | - |
| 1777224707 | 8.33° C | 86% | 1004.9 hPa | 0.51 mm | - | 290 W/m² | - |
| 1777224402 | 8.33° C | 85% | 1004.7 hPa | 0.51 mm | - | 357 W/m² | - |
| 1777224098 | 8.33° C | 86% | 1004.5 hPa | 0 mm | - | 286 W/m² | - |
| 1777223796 | 7.78° C | 86% | 1004.8 hPa | 0.51 mm | - | 227 W/m² | - |
* Rain latest hour (hover to see other rain measurements)
** Current wind speed in m/s (hover to see current wind gust speed)